Time;durP1;ratioP1;P1;durP2;ratioP2;P2;SDS_P1;SDS_P2;PMS_P1;PMS_P2;Temp;Humidity;BMP_temperature;BMP_pressure;BME280_temperature;BME280_humidity;BME280_pressure;Samples;Min_cycle;Max_cycle;Signal;HPM_P1;HPM_P2
2021/11/02 00:00:35;;;;;;;83.85;54.65;;;8.50;99.90;;;;;;5076888;28;20074;-91
2021/11/02 00:03:01;;;;;;;87.45;56.63;;;8.50;99.90;;;;;;5076827;28;20024;-90
2021/11/02 00:05:28;;;;;;;94.97;57.13;;;8.50;99.90;;;;;;5076739;28;20028;-91
2021/11/02 00:07:53;;;;;;;95.57;58.53;;;8.50;99.90;;;;;;5076647;28;20028;-90
2021/11/02 00:10:20;;;;;;;98.13;61.67;;;8.50;99.90;;;;;;5076661;28;20020;-90
2021/11/02 00:12:45;;;;;;;105.57;60.58;;;8.40;99.90;;;;;;5076466;28;20039;-89
2021/11/02 00:15:12;;;;;;;85.18;52.13;;;8.40;99.90;;;;;;5076566;28;20025;-90
2021/11/02 00:17:40;;;;;;;85.78;53.33;;;8.40;99.90;;;;;;5076459;28;20032;-90
2021/11/02 00:20:11;;;;;;;84.50;53.80;;;8.40;99.90;;;;;;5076357;28;20085;-90
2021/11/02 00:22:38;;;;;;;104.10;61.70;;;8.50;99.90;;;;;;5076074;28;20052;-89
2021/11/02 00:25:04;;;;;;;94.32;55.63;;;8.40;99.90;;;;;;5076388;28;20017;-91
2021/11/02 00:27:41;;;;;;;89.47;54.60;;;8.40;99.90;;;;;;5076448;28;20111;-90
2021/11/02 00:30:13;;;;;;;94.88;57.85;;;8.40;99.90;;;;;;5077681;28;20028;-91
2021/11/02 00:32:39;;;;;;;88.07;53.30;;;8.30;99.90;;;;;;5076229;28;20036;-91
2021/11/02 00:35:06;;;;;;;93.80;55.92;;;8.30;99.90;;;;;;5076136;28;20372;-90
2021/11/02 00:37:32;;;;;;;85.10;52.92;;;8.40;99.90;;;;;;5076126;28;20089;-90
2021/11/02 00:39:58;;;;;;;79.30;48.85;;;8.40;99.90;;;;;;5076065;28;20028;-90
2021/11/02 00:42:32;;;;;;;89.82;54.53;;;8.40;99.90;;;;;;5076860;28;20066;-90
2021/11/02 00:45:00;;;;;;;88.43;52.33;;;8.40;99.90;;;;;;5075903;28;20025;-91
2021/11/02 00:47:27;;;;;;;96.68;53.85;;;8.40;99.90;;;;;;5075928;28;20031;-90
2021/11/02 00:49:53;;;;;;;94.63;55.60;;;8.40;99.90;;;;;;5075818;28;20067;-90
2021/11/02 00:52:19;;;;;;;90.82;54.45;;;8.30;99.90;;;;;;5076022;28;20119;-90
2021/11/02 00:54:45;;;;;;;82.90;50.88;;;8.30;99.90;;;;;;5075445;28;20032;-91
2021/11/02 00:57:11;;;;;;;90.95;52.60;;;8.30;99.90;;;;;;5076931;28;20024;-91
2021/11/02 00:59:37;;;;;;;89.00;53.47;;;8.40;99.90;;;;;;5075492;28;20020;-91
2021/11/02 01:02:07;;;;;;;86.57;54.63;;;8.30;99.90;;;;;;5075637;28;20024;-91
2021/11/02 01:04:32;;;;;;;90.97;51.50;;;8.30;99.90;;;;;;5075737;28;20444;-91
2021/11/02 01:07:00;;;;;;;86.70;50.10;;;8.30;99.90;;;;;;5075599;28;20048;-92
2021/11/02 01:09:25;;;;;;;86.53;52.92;;;8.40;99.90;;;;;;5075630;28;20021;-91
2021/11/02 01:11:51;;;;;;;83.45;52.38;;;8.30;99.90;;;;;;5075571;28;20024;-91
2021/11/02 01:14:17;;;;;;;84.65;51.80;;;8.40;99.90;;;;;;5075506;28;20525;-91
2021/11/02 01:16:43;;;;;;;85.70;51.10;;;8.40;99.90;;;;;;5075585;28;20025;-92
2021/11/02 01:19:08;;;;;;;84.85;51.17;;;8.40;99.90;;;;;;5080458;28;20069;-91
2021/11/02 01:21:34;;;;;;;88.00;53.72;;;8.40;99.90;;;;;;5095405;28;20055;-91
2021/11/02 01:24:00;;;;;;;85.82;51.42;;;8.30;99.90;;;;;;5095432;28;20054;-92
2021/11/02 01:26:25;;;;;;;86.93;52.00;;;8.40;99.90;;;;;;5095021;28;20035;-92
2021/11/02 01:28:51;;;;;;;94.05;56.65;;;8.40;99.90;;;;;;5095363;28;20020;-91
2021/11/02 01:31:17;;;;;;;97.68;55.92;;;8.40;99.90;;;;;;5095244;28;20431;-92
2021/11/02 01:33:42;;;;;;;85.97;52.67;;;8.30;99.90;;;;;;5095466;28;20031;-91
2021/11/02 01:36:09;;;;;;;86.22;50.08;;;8.40;99.90;;;;;;5095322;28;20367;-92
2021/11/02 01:38:35;;;;;;;90.40;52.40;;;8.40;99.90;;;;;;5095236;28;20031;-92
2021/11/02 01:41:03;;;;;;;92.35;54.15;;;8.40;99.90;;;;;;5084113;28;20016;-91
2021/11/02 01:43:28;;;;;;;84.43;52.00;;;8.40;99.90;;;;;;5074916;28;20471;-91
2021/11/02 01:45:54;;;;;;;83.28;51.75;;;8.40;99.90;;;;;;5075104;28;20038;-92
2021/11/02 01:48:25;;;;;;;90.00;53.63;;;8.30;99.90;;;;;;5074802;28;20472;-92
2021/11/02 01:50:51;;;;;;;;;;;8.30;99.90;;;;;;5075258;28;20425;-92
2021/11/02 01:53:17;;;;;;;84.07;50.40;;;8.30;99.90;;;;;;5074587;28;19954;-92
2021/11/02 01:55:43;;;;;;;90.13;53.17;;;8.30;99.90;;;;;;5082916;28;20020;-92
2021/11/02 01:58:11;;;;;;;83.82;49.03;;;8.30;99.90;;;;;;5094861;28;20436;-92
2021/11/02 02:00:38;;;;;;;87.13;51.30;;;8.30;99.90;;;;;;5095029;28;20024;-92
2021/11/02 02:03:31;;;;;;;90.70;52.67;;;8.30;99.90;;;;;;5094648;28;20031;-91
2021/11/02 02:06:11;;;;;;;78.28;47.40;;;8.20;99.90;;;;;;5093970;28;20030;-92
2021/11/02 02:09:02;;;;;;;89.47;52.10;;;8.30;99.90;;;;;;5094597;28;20020;-90
2021/11/02 02:12:08;;;;;;;79.80;47.60;;;8.10;99.90;;;;;;5094723;28;20024;-91
2021/11/02 02:15:09;;;;;;;82.63;50.35;;;8.10;99.90;;;;;;5094451;28;20031;-92
2021/11/02 02:17:56;;;;;;;80.25;47.85;;;8.00;99.90;;;;;;5094450;28;20110;-92
2021/11/02 02:20:43;;;;;;;83.18;48.60;;;8.10;99.90;;;;;;5094458;28;20020;-92
2021/11/02 02:23:21;;;;;;;76.75;44.85;;;8.10;99.90;;;;;;5094108;28;20048;-92
2021/11/02 02:26:06;;;;;;;81.60;48.13;;;8.10;99.90;;;;;;5085015;28;20035;-91
2021/11/02 02:28:36;;;;;;;89.18;50.58;;;8.10;99.90;;;;;;5074841;28;20107;-91
2021/11/02 02:31:05;;;;;;;81.53;46.22;;;8.00;99.90;;;;;;5073979;28;20028;-92
2021/11/02 02:33:41;;;;;;;79.55;45.90;;;8.10;99.90;;;;;;5082069;28;20501;-91
2021/11/02 02:36:07;;;;;;;81.15;44.88;;;8.10;99.90;;;;;;5094189;28;20031;-93
2021/11/02 02:38:37;;;;;;;77.80;44.28;;;8.10;99.90;;;;;;5095045;28;20362;-92
2021/11/02 02:41:04;;;;;;;73.13;44.38;;;8.20;99.90;;;;;;5094001;28;20031;-91
2021/11/02 02:43:34;;;;;;;66.60;40.40;;;8.20;99.90;;;;;;5093966;28;20425;-92
2021/11/02 02:46:00;;;;;;;77.95;43.90;;;8.20;99.90;;;;;;5094535;28;20055;-92
2021/11/02 02:48:27;;;;;;;70.45;43.13;;;8.20;99.90;;;;;;5094097;28;20020;-92
2021/11/02 02:50:56;;;;;;;68.38;40.30;;;8.20;99.90;;;;;;5093969;28;20107;-92
2021/11/02 02:53:22;;;;;;;70.38;40.88;;;8.20;99.90;;;;;;5093829;28;20405;-93
2021/11/02 02:55:48;;;;;;;68.07;40.13;;;8.20;99.90;;;;;;5093774;28;20027;-93
2021/11/02 02:58:15;;;;;;;71.88;40.28;;;8.20;99.90;;;;;;5094492;28;20046;-92
2021/11/02 03:00:43;;;;;;;65.10;39.58;;;8.10;99.90;;;;;;5093951;28;20024;-92
2021/11/02 03:03:12;;;;;;;68.25;40.28;;;8.10;99.90;;;;;;5093557;28;20109;-92
2021/11/02 03:05:38;;;;;;;68.82;41.40;;;8.10;99.90;;;;;;5093678;28;20471;-92
2021/11/02 03:08:05;;;;;;;69.03;39.92;;;8.10;99.90;;;;;;5093931;28;20459;-92
2021/11/02 03:10:31;;;;;;;63.28;36.58;;;8.10;99.90;;;;;;5093496;28;20020;-92
2021/11/02 03:13:04;;;;;;;62.17;38.35;;;8.20;99.90;;;;;;5093543;28;20042;-92
2021/11/02 03:43:43;;;;;;;73.03;39.72;;;8.00;99.90;;;;;;5094308;28;20031;-93
2021/11/02 03:49:30;;;;;;;74.25;40.75;;;7.80;99.90;;;;;;5057360;28;20021;-92
2021/11/02 03:54:51;;;;;;;62.92;37.67;;;7.90;99.90;;;;;;5094951;28;20481;-92
2021/11/02 14:02:51;;;;;;;428.25;129.82;;;9.50;99.90;;;;;;5061664;27;1407572;-93
2021/11/02 14:05:17;;;;;;;350.83;108.20;;;9.50;99.90;;;;;;5090767;28;20429;-93
2021/11/02 14:07:44;;;;;;;326.15;94.22;;;9.50;99.90;;;;;;5091875;28;20081;-92
2021/11/02 14:10:15;;;;;;;347.40;95.10;;;9.50;99.90;;;;;;5092950;28;20028;-94
2021/11/02 14:13:01;;;;;;;323.10;94.03;;;9.60;99.90;;;;;;5091221;28;20024;-95
2021/11/02 14:15:42;;;;;;;335.55;90.40;;;9.60;99.90;;;;;;5091465;28;20024;-94
2021/11/02 14:18:10;;;;;;;337.15;92.35;;;9.70;99.90;;;;;;5090584;28;20074;-95
2021/11/02 14:20:39;;;;;;;300.25;86.45;;;9.70;99.90;;;;;;5090377;28;20028;-95
2021/11/02 14:23:16;;;;;;;302.50;87.55;;;9.70;99.90;;;;;;5090641;28;20021;-95
2021/11/02 14:25:42;;;;;;;296.05;85.43;;;9.80;99.90;;;;;;5090309;28;20024;-94
2021/11/02 14:28:09;;;;;;;270.35;82.53;;;9.80;99.90;;;;;;5090692;28;20031;-95
2021/11/02 14:30:34;;;;;;;282.92;82.35;;;9.90;99.90;;;;;;5090568;28;20077;-94
2021/11/02 14:33:01;;;;;;;280.50;84.28;;;9.90;99.90;;;;;;5090594;28;20495;-94
2021/11/02 14:35:45;;;;;;;263.65;78.57;;;9.90;99.90;;;;;;5091098;28;20024;-94
2021/11/02 14:38:15;;;;;;;298.48;86.13;;;9.90;99.90;;;;;;5090288;28;20062;-94
2021/11/02 14:40:49;;;;;;;241.65;74.93;;;9.90;99.90;;;;;;5090561;28;20024;-94
2021/11/02 14:43:17;;;;;;;315.10;89.80;;;9.90;99.90;;;;;;5090018;28;20020;-94
2021/11/02 14:45:50;;;;;;;281.42;85.65;;;9.90;99.90;;;;;;5090307;28;20369;-94
2021/11/02 14:48:29;;;;;;;246.63;85.18;;;9.90;99.90;;;;;;5089659;28;20024;-94
2021/11/02 14:51:00;;;;;;;279.30;86.70;;;10.00;99.90;;;;;;5090352;28;20039;-95
2021/11/02 14:53:29;;;;;;;291.15;85.63;;;10.00;99.90;;;;;;5090689;28;20024;-95
2021/11/02 14:56:04;;;;;;;271.15;87.88;;;10.00;99.90;;;;;;5089869;28;20031;-94
2021/11/02 14:58:39;;;;;;;307.98;84.13;;;10.00;99.90;;;;;;5089772;28;20043;-95
2021/11/02 15:01:06;;;;;;;231.60;75.03;;;10.00;99.90;;;;;;5089554;28;20044;-95
2021/11/02 15:03:33;;;;;;;312.85;88.30;;;10.10;99.90;;;;;;5089811;28;20032;-95
2021/11/02 15:06:05;;;;;;;218.88;74.10;;;10.00;99.90;;;;;;5089647;28;20103;-95
2021/11/02 15:08:33;;;;;;;284.50;83.97;;;10.00;99.90;;;;;;5089662;28;20028;-95
2021/11/02 15:11:02;;;;;;;322.92;88.05;;;10.10;99.90;;;;;;5089555;28;20025;-94
2021/11/02 15:13:28;;;;;;;237.95;78.63;;;10.10;99.90;;;;;;5078902;28;20024;-95
2021/11/02 15:15:55;;;;;;;281.27;84.45;;;10.10;99.90;;;;;;5076221;28;20037;-94
2021/11/02 15:18:21;;;;;;;263.80;82.45;;;10.10;99.90;;;;;;5076741;28;20063;-95
2021/11/02 15:20:48;;;;;;;198.38;70.25;;;10.20;99.90;;;;;;5076290;28;20056;-95
2021/11/02 15:23:15;;;;;;;271.42;81.28;;;10.20;99.90;;;;;;5076013;28;20115;-95
2021/11/02 15:25:42;;;;;;;208.52;70.70;;;10.20;99.90;;;;;;5075903;28;20115;-94
2021/11/02 15:28:10;;;;;;;227.98;75.68;;;10.20;99.90;;;;;;5075773;28;20021;-93
2021/11/02 15:30:37;;;;;;;252.15;80.60;;;10.20;99.90;;;;;;5076744;28;20031;-93
2021/11/02 15:33:03;;;;;;;247.35;81.35;;;10.20;99.90;;;;;;5075521;28;20391;-93
2021/11/02 15:35:29;;;;;;;281.98;89.50;;;10.30;99.90;;;;;;5067490;28;20025;-93
2021/11/02 15:38:00;;;;;;;245.82;81.75;;;10.30;99.90;;;;;;5055435;28;20040;-93
2021/11/02 15:40:39;;;;;;;244.30;76.82;;;10.30;99.90;;;;;;5055384;28;20033;-93
2021/11/02 15:43:07;;;;;;;259.90;79.25;;;10.30;99.90;;;;;;5055666;28;20021;-93
2021/11/02 15:45:39;;;;;;;252.57;78.50;;;10.30;99.90;;;;;;5066503;28;20032;-93
2021/11/02 15:48:11;;;;;;;192.68;67.32;;;10.20;99.90;;;;;;5056160;28;20025;-93
2021/11/02 15:50:46;;;;;;;180.80;64.55;;;10.20;99.90;;;;;;5055486;28;20040;-93
2021/11/02 15:53:13;;;;;;;187.30;61.72;;;10.30;99.90;;;;;;5055217;28;20025;-93
2021/11/02 15:55:40;;;;;;;166.32;60.63;;;10.30;99.90;;;;;;5055228;28;20036;-94
2021/11/02 15:58:08;;;;;;;212.73;82.95;;;10.30;99.90;;;;;;5055493;28;20029;-93
2021/11/02 16:00:37;;;;;;;208.02;92.38;;;10.30;99.90;;;;;;5054981;28;20029;-94
2021/11/02 16:03:10;;;;;;;189.73;80.13;;;10.30;99.90;;;;;;5054882;28;20060;-92
2021/11/02 16:05:37;;;;;;;180.55;75.47;;;10.30;99.90;;;;;;5052592;28;20029;-96
2021/11/02 16:08:17;;;;;;;161.27;67.45;;;10.30;99.90;;;;;;5055747;28;20025;-96
2021/11/02 16:10:44;;;;;;;166.40;74.10;;;10.30;99.90;;;;;;5054930;28;20079;-96
2021/11/02 16:13:11;;;;;;;151.05;72.82;;;10.30;99.90;;;;;;5054961;28;20498;-96
2021/11/02 16:15:39;;;;;;;155.55;73.05;;;10.30;99.90;;;;;;5054934;28;20032;-96
2021/11/02 16:18:24;;;;;;;145.82;71.85;;;10.30;99.90;;;;;;5054950;28;20075;-96
2021/11/02 16:20:56;;;;;;;131.05;66.45;;;10.30;99.90;;;;;;5055219;28;20098;-96
2021/11/02 16:23:24;;;;;;;106.15;55.05;;;10.20;99.90;;;;;;5054659;28;20029;-96
2021/11/02 16:25:53;;;;;;;72.85;40.20;;;10.30;99.90;;;;;;5054047;28;20078;-96
2021/11/02 16:28:30;;;;;;;66.97;36.63;;;10.30;99.90;;;;;;5054618;28;20490;-96
2021/11/02 16:31:03;;;;;;;69.45;35.30;;;10.20;99.90;;;;;;5054609;28;20029;-96
2021/11/02 16:33:32;;;;;;;60.92;32.47;;;10.20;99.90;;;;;;5054996;28;20025;-95
2021/11/02 16:36:12;;;;;;;64.43;33.80;;;10.20;99.90;;;;;;5054582;28;20108;-96
2021/11/02 16:38:37;;;;;;;53.33;30.05;;;10.20;99.90;;;;;;5055449;28;20036;-96
2021/11/02 16:41:18;;;;;;;60.00;34.22;;;10.20;99.90;;;;;;5054535;28;20025;-96
2021/11/02 16:44:00;;;;;;;51.55;29.83;;;10.20;99.90;;;;;;5054685;28;20047;-96
2021/11/02 16:46:35;;;;;;;50.53;29.35;;;10.20;99.90;;;;;;5054480;28;20528;-96
2021/11/02 16:49:05;;;;;;;44.05;27.25;;;10.20;99.90;;;;;;5055267;28;20055;-96
2021/11/02 16:51:58;;;;;;;51.43;29.53;;;10.10;99.90;;;;;;5054580;28;20025;-96
2021/11/02 16:54:28;;;;;;;44.35;26.98;;;10.10;99.90;;;;;;5056118;28;20060;-96
2021/11/02 16:57:02;;;;;;;43.20;26.52;;;10.10;99.90;;;;;;5055065;28;20032;-96
2021/11/02 16:59:40;;;;;;;48.28;28.38;;;10.10;99.90;;;;;;5055011;28;20033;-96
2021/11/02 17:02:27;;;;;;;45.90;27.45;;;10.10;99.90;;;;;;5057623;28;20043;-96
2021/11/02 17:05:16;;;;;;;48.67;28.65;;;10.10;99.90;;;;;;5055574;28;20349;-96
2021/11/02 17:08:03;;;;;;;42.88;27.90;;;10.10;99.90;;;;;;5060043;28;20040;-96
2021/11/02 17:11:06;;;;;;;43.95;28.85;;;10.10;99.90;;;;;;5063771;28;20028;-96
2021/11/02 17:13:37;;;;;;;45.63;27.50;;;10.10;99.90;;;;;;5055049;28;20410;-96
2021/11/02 17:16:14;;;;;;;40.45;27.40;;;10.00;99.90;;;;;;5055815;28;20088;-96
2021/11/02 17:19:01;;;;;;;50.75;31.27;;;10.10;99.90;;;;;;5054867;28;20052;-93
2021/11/02 17:21:32;;;;;;;47.42;30.48;;;10.10;99.90;;;;;;5054207;28;20078;-96
2021/11/02 17:24:00;;;;;;;46.33;29.55;;;10.10;99.90;;;;;;5054878;28;20016;-96
2021/11/02 17:26:29;;;;;;;42.15;29.35;;;10.00;99.90;;;;;;5054826;28;20028;-95
2021/11/02 17:28:56;;;;;;;43.28;29.63;;;10.00;99.90;;;;;;5055312;28;20029;-96
2021/11/02 17:31:37;;;;;;;42.90;28.67;;;10.10;99.90;;;;;;5056785;28;20029;-93
2021/11/02 17:34:04;;;;;;;47.22;30.35;;;10.10;99.90;;;;;;5054136;28;20021;-94
2021/11/02 17:36:30;;;;;;;48.20;30.95;;;10.10;99.90;;;;;;5053952;28;20078;-95
2021/11/02 17:38:57;;;;;;;46.53;29.38;;;10.10;99.90;;;;;;5053716;28;20028;-94
2021/11/02 17:41:24;;;;;;;36.80;27.77;;;10.00;99.90;;;;;;5053374;28;20029;-94
2021/11/02 17:43:54;;;;;;;43.63;29.77;;;10.00;99.90;;;;;;5053487;28;20055;-95
2021/11/02 17:46:21;;;;;;;46.90;30.08;;;10.00;99.90;;;;;;5054803;28;20021;-94
2021/11/02 17:48:47;;;;;;;41.75;29.88;;;10.00;99.90;;;;;;5053582;28;20025;-95
2021/11/02 17:51:13;;;;;;;44.92;28.27;;;10.00;99.90;;;;;;5053867;28;20025;-94
2021/11/02 17:53:39;;;;;;;48.00;29.42;;;10.00;99.90;;;;;;5053226;28;20079;-94
2021/11/02 17:56:08;;;;;;;60.00;38.40;;;9.90;99.90;;;;;;5053589;28;20025;-92
2021/11/02 17:58:37;;;;;;;59.33;39.63;;;10.00;99.90;;;;;;5053669;28;20017;-95
2021/11/02 18:01:04;;;;;;;50.75;33.75;;;10.00;99.90;;;;;;5055210;28;20128;-95
2021/11/02 18:03:33;;;;;;;66.78;47.85;;;10.00;99.90;;;;;;5053984;28;20386;-91
2021/11/02 18:06:04;;;;;;;61.10;43.75;;;10.00;99.90;;;;;;5071468;28;20379;-95
2021/11/02 18:08:34;;;;;;;51.85;33.70;;;10.00;99.90;;;;;;5073274;28;20023;-94
2021/11/02 18:11:01;;;;;;;48.25;33.10;;;10.10;99.90;;;;;;5073880;28;20123;-94
2021/11/02 18:13:27;;;;;;;49.53;32.10;;;10.10;99.90;;;;;;5073615;28;20024;-93
2021/11/02 18:15:54;;;;;;;45.05;31.30;;;10.00;99.90;;;;;;5073145;28;20086;-94
2021/11/02 18:18:21;;;;;;;47.60;32.33;;;10.00;99.90;;;;;;5073359;28;20060;-95
2021/11/02 18:20:48;;;;;;;42.72;29.88;;;10.00;99.90;;;;;;5074547;28;20024;-96
2021/11/02 18:23:15;;;;;;;41.55;28.77;;;10.00;99.90;;;;;;5073173;28;20025;-94
2021/11/02 18:25:42;;;;;;;44.00;30.05;;;10.00;99.90;;;;;;5073744;28;20032;-93
2021/11/02 18:28:08;;;;;;;45.85;29.40;;;10.00;99.90;;;;;;5074078;28;20466;-94
2021/11/02 18:30:34;;;;;;;41.30;29.30;;;10.00;99.90;;;;;;5073478;28;20048;-95
2021/11/02 18:33:01;;;;;;;51.83;33.45;;;10.00;99.90;;;;;;5073935;28;20074;-95
2021/11/02 18:35:27;;;;;;;55.17;35.40;;;9.90;99.90;;;;;;5074979;28;20021;-95
2021/11/02 18:37:54;;;;;;;60.35;36.22;;;9.90;99.90;;;;;;5074109;28;20032;-94
2021/11/02 18:40:22;;;;;;;48.33;31.60;;;9.90;99.90;;;;;;5074661;28;20029;-95
2021/11/02 18:42:57;;;;;;;46.17;31.27;;;9.90;99.90;;;;;;5074626;28;20017;-93
2021/11/02 18:45:26;;;;;;;62.17;34.90;;;10.00;99.90;;;;;;5073341;28;20017;-95
2021/11/02 18:47:53;;;;;;;64.15;39.05;;;9.90;99.90;;;;;;5074982;28;20028;-95
2021/11/02 18:50:21;;;;;;;67.05;43.58;;;9.90;99.90;;;;;;5082159;28;20021;-96
2021/11/02 18:52:47;;;;;;;63.75;37.47;;;9.90;99.90;;;;;;5085486;28;20024;-96
2021/11/02 18:55:13;;;;;;;65.28;36.72;;;9.90;99.90;;;;;;5082378;28;20021;-93
2021/11/02 18:57:39;;;;;;;63.15;36.92;;;9.80;99.90;;;;;;5063459;28;20021;-93
2021/11/02 19:00:09;;;;;;;65.78;35.60;;;9.80;99.90;;;;;;5056458;28;20045;-94
2021/11/02 19:02:36;;;;;;;62.47;35.42;;;9.80;99.90;;;;;;5056977;28;20126;-92
2021/11/02 19:05:03;;;;;;;66.55;36.90;;;9.80;99.90;;;;;;5056275;28;20055;-91
2021/11/02 19:07:29;;;;;;;57.40;33.83;;;9.80;99.90;;;;;;5056130;28;20021;-94
2021/11/02 19:09:55;;;;;;;57.63;34.42;;;9.80;99.90;;;;;;5056017;28;20025;-93
2021/11/02 19:12:20;;;;;;;64.53;38.10;;;9.80;99.90;;;;;;5069096;28;20040;-93
2021/11/02 19:14:47;;;;;;;71.10;36.13;;;9.80;99.90;;;;;;5090809;28;20028;-93
2021/11/02 19:17:13;;;;;;;72.38;37.30;;;9.70;99.90;;;;;;5096505;28;20539;-94
2021/11/02 19:19:39;;;;;;;76.90;38.80;;;9.70;99.90;;;;;;5096608;28;20450;-92
2021/11/02 19:22:05;;;;;;;77.93;38.83;;;9.70;99.90;;;;;;5096030;28;20028;-90
2021/11/02 19:24:33;;;;;;;73.50;37.97;;;9.70;99.90;;;;;;5096194;28;20020;-89
2021/11/02 19:26:58;;;;;;;142.60;64.57;;;9.80;99.90;;;;;;5082690;28;20164;-90
2021/11/02 19:29:24;;;;;;;97.03;47.53;;;9.70;99.90;;;;;;5075813;28;20029;-90
2021/11/02 19:31:50;;;;;;;90.55;42.50;;;9.80;99.90;;;;;;5075967;28;20067;-91
2021/11/02 19:34:16;;;;;;;90.28;40.88;;;9.70;99.90;;;;;;5075719;28;20024;-91
2021/11/02 19:36:44;;;;;;;87.78;39.63;;;9.80;99.90;;;;;;5075765;28;20478;-90
2021/11/02 19:39:11;;;;;;;83.07;41.45;;;9.80;99.90;;;;;;5075499;28;20108;-89
2021/11/02 19:41:37;;;;;;;83.55;37.70;;;9.70;99.90;;;;;;5075466;28;20493;-89
2021/11/02 19:44:03;;;;;;;90.93;41.95;;;9.70;99.90;;;;;;5076625;28;20049;-89
2021/11/02 19:46:29;;;;;;;75.80;37.83;;;9.70;99.90;;;;;;5067604;28;20028;-90
2021/11/02 19:48:55;;;;;;;76.63;38.58;;;9.70;99.90;;;;;;5075394;28;20043;-90
2021/11/02 19:51:21;;;;;;;68.90;36.40;;;9.70;99.90;;;;;;5075488;28;20029;-90
2021/11/02 19:53:48;;;;;;;75.10;35.47;;;9.70;99.90;;;;;;5075060;28;20425;-90
2021/11/02 19:56:16;;;;;;;70.07;36.85;;;9.70;99.90;;;;;;5075211;28;20020;-90
2021/11/02 19:58:41;;;;;;;72.45;34.65;;;9.70;99.90;;;;;;5075221;28;20064;-90
2021/11/02 20:01:08;;;;;;;68.53;35.30;;;9.60;99.90;;;;;;5075015;28;20072;-89
2021/11/02 20:03:34;;;;;;;73.03;38.30;;;9.60;99.90;;;;;;5075069;28;20027;-90
2021/11/02 20:06:01;;;;;;;65.28;36.05;;;9.60;99.90;;;;;;5075037;28;20029;-91
2021/11/02 20:08:27;;;;;;;69.03;37.90;;;9.60;99.90;;;;;;5074848;28;20467;-90
2021/11/02 20:10:56;;;;;;;68.22;36.15;;;9.60;99.90;;;;;;5059891;28;20032;-90
2021/11/02 20:13:23;;;;;;;64.35;34.85;;;9.50;99.90;;;;;;5066288;28;20021;-90
2021/11/02 20:15:50;;;;;;;64.50;33.17;;;9.50;99.90;;;;;;5054652;28;20021;-90
2021/11/02 20:18:22;;;;;;;66.82;35.50;;;9.50;99.90;;;;;;5063128;28;20042;-91
2021/11/02 20:20:49;;;;;;;63.40;34.38;;;9.50;99.90;;;;;;5075632;28;20474;-90
2021/11/02 20:23:16;;;;;;;68.82;35.67;;;9.40;99.90;;;;;;5074652;28;20493;-90
2021/11/02 20:25:43;;;;;;;68.88;36.33;;;9.40;99.90;;;;;;5074737;28;20024;-90
2021/11/02 20:28:09;;;;;;;67.28;35.22;;;9.40;99.90;;;;;;5072305;28;20016;-91
2021/11/02 20:30:36;;;;;;;67.03;34.90;;;9.40;99.90;;;;;;5058795;28;20029;-92
2021/11/02 20:33:02;;;;;;;64.80;33.75;;;9.40;99.90;;;;;;5055545;28;20033;-90
2021/11/02 20:35:28;;;;;;;64.30;34.55;;;9.40;99.90;;;;;;5054258;28;20021;-91
2021/11/02 20:38:00;;;;;;;68.32;34.53;;;9.40;99.90;;;;;;5054702;28;20360;-91
2021/11/02 20:40:39;;;;;;;71.53;37.38;;;9.40;99.90;;;;;;5061871;28;20044;-90
2021/11/02 20:43:09;;;;;;;74.07;35.90;;;9.50;99.90;;;;;;5074144;28;20060;-91
2021/11/02 20:45:37;;;;;;;68.45;34.40;;;9.40;99.90;;;;;;5073973;28;20027;-91
2021/11/02 20:48:08;;;;;;;73.88;36.65;;;9.50;99.90;;;;;;5070357;28;20025;-91
2021/11/02 20:50:36;;;;;;;;;;;9.40;99.90;;;;;;5054559;28;20029;-91
2021/11/02 20:53:03;;;;;;;81.30;38.63;;;9.40;99.90;;;;;;5054279;28;19904;-93
2021/11/02 20:55:29;;;;;;;75.25;37.63;;;9.40;99.90;;;;;;5054005;28;20029;-91
2021/11/02 20:57:55;;;;;;;78.30;38.58;;;9.40;99.90;;;;;;5053961;28;20025;-92
2021/11/02 21:00:22;;;;;;;77.15;36.28;;;9.40;99.90;;;;;;5053904;28;20067;-91
2021/11/02 21:02:48;;;;;;;72.25;35.17;;;9.40;99.90;;;;;;5053698;28;20110;-91
2021/11/02 21:05:14;;;;;;;81.30;37.58;;;9.40;99.90;;;;;;5053854;28;20048;-91
2021/11/02 21:07:48;;;;;;;75.20;36.55;;;9.40;99.90;;;;;;5053762;28;20021;-91
2021/11/02 21:10:16;;;;;;;83.30;38.70;;;9.40;99.90;;;;;;5072794;28;20475;-92
2021/11/02 21:12:44;;;;;;;85.38;39.80;;;9.40;99.90;;;;;;5074635;28;20104;-91
2021/11/02 21:15:13;;;;;;;79.78;37.22;;;9.30;99.90;;;;;;5073782;28;20021;-91
2021/11/02 21:17:40;;;;;;;76.72;37.22;;;9.40;99.90;;;;;;5073549;28;20075;-92
2021/11/02 21:20:15;;;;;;;82.10;37.80;;;9.40;99.90;;;;;;5073808;28;20073;-91
2021/11/02 21:22:44;;;;;;;83.03;37.42;;;9.40;99.90;;;;;;5073405;28;20029;-92
2021/11/02 21:25:10;;;;;;;74.03;35.20;;;9.40;99.90;;;;;;5073836;28;20025;-92
2021/11/02 21:27:36;;;;;;;81.97;38.40;;;9.40;99.90;;;;;;5073018;28;20070;-91
2021/11/02 21:30:03;;;;;;;76.13;36.70;;;9.40;99.90;;;;;;5053558;28;20103;-92
2021/11/02 21:32:32;;;;;;;75.45;37.65;;;9.40;99.90;;;;;;5053600;28;20468;-91
2021/11/02 21:34:57;;;;;;;82.20;38.10;;;9.40;99.90;;;;;;5053161;28;20036;-91
2021/11/02 21:37:26;;;;;;;83.03;38.28;;;9.40;99.90;;;;;;5053544;28;20028;-91
2021/11/02 21:39:53;;;;;;;83.35;39.00;;;9.30;99.90;;;;;;5053182;28;20031;-91
2021/11/02 21:42:33;;;;;;;74.60;35.63;;;9.30;99.90;;;;;;5053352;28;20029;-91
2021/11/02 21:45:03;;;;;;;73.63;36.60;;;9.40;99.90;;;;;;5053595;28;20021;-92
2021/11/02 21:47:32;;;;;;;76.97;37.00;;;9.30;99.90;;;;;;5053740;28;20112;-91
2021/11/02 21:50:12;;;;;;;73.85;36.67;;;9.30;99.90;;;;;;5053212;28;20017;-92
2021/11/02 21:52:48;;;;;;;78.10;38.70;;;9.30;99.90;;;;;;5052952;28;20032;-91
2021/11/02 21:55:14;;;;;;;76.13;37.22;;;9.30;99.90;;;;;;5053085;28;20029;-92
2021/11/02 21:58:12;;;;;;;73.40;35.70;;;9.30;99.90;;;;;;5053075;28;20021;-93
2021/11/02 22:00:39;;;;;;;70.45;35.05;;;9.20;99.90;;;;;;4985092;28;20098;-92
2021/11/02 22:03:06;;;;;;;70.57;34.35;;;9.30;99.90;;;;;;5053273;28;20040;-93
2021/11/02 22:05:32;;;;;;;72.97;35.67;;;9.20;99.90;;;;;;5052976;28;20460;-92
2021/11/02 22:07:58;;;;;;;70.15;35.75;;;9.20;99.90;;;;;;5053017;28;20036;-92
2021/11/02 22:10:24;;;;;;;74.35;35.60;;;9.20;99.90;;;;;;5053013;28;20544;-93
2021/11/02 22:12:50;;;;;;;73.72;36.08;;;9.10;99.90;;;;;;5053414;28;20064;-91
2021/11/02 22:15:18;;;;;;;75.68;35.58;;;9.10;99.90;;;;;;5052844;28;20075;-92
2021/11/02 22:17:44;;;;;;;73.60;34.55;;;9.10;99.90;;;;;;5053122;28;20063;-92
2021/11/02 22:20:10;;;;;;;69.15;35.35;;;9.10;99.90;;;;;;5052890;28;20029;-91
2021/11/02 22:22:36;;;;;;;62.60;33.58;;;9.10;99.90;;;;;;5053587;28;20075;-92
2021/11/02 22:25:02;;;;;;;62.92;31.67;;;9.10;99.90;;;;;;5056825;28;20021;-92
2021/11/02 22:27:30;;;;;;;66.30;35.00;;;9.10;99.90;;;;;;5057081;28;20027;-92
2021/11/02 22:29:57;;;;;;;64.40;34.88;;;9.10;99.90;;;;;;5056613;28;20021;-92
2021/11/02 22:32:24;;;;;;;72.47;35.45;;;9.10;99.90;;;;;;5057122;28;20446;-91
2021/11/02 22:34:52;;;;;;;67.40;34.92;;;9.00;99.90;;;;;;5056589;28;20017;-92
2021/11/02 22:37:18;;;;;;;78.32;36.15;;;8.90;99.90;;;;;;5071750;28;20024;-93
2021/11/02 22:39:44;;;;;;;77.35;36.20;;;8.90;99.90;;;;;;5076321;28;20077;-92
2021/11/02 22:42:10;;;;;;;66.28;33.70;;;8.80;99.90;;;;;;5077166;28;20093;-92
2021/11/02 22:44:36;;;;;;;69.15;34.33;;;8.70;99.90;;;;;;5075687;28;20534;-92
2021/11/02 22:47:02;;;;;;;67.70;33.53;;;8.70;99.90;;;;;;5076328;28;20067;-92
2021/11/02 22:49:29;;;;;;;66.53;32.97;;;8.70;99.90;;;;;;5075934;28;20016;-92
2021/11/02 22:51:55;;;;;;;62.47;31.55;;;8.70;99.90;;;;;;5076295;28;20032;-92
2021/11/02 22:54:21;;;;;;;68.50;35.70;;;8.70;99.90;;;;;;5076204;28;20033;-92
2021/11/02 22:56:49;;;;;;;70.82;36.65;;;8.70;99.90;;;;;;5076636;28;20059;-93
2021/11/02 22:59:15;;;;;;;62.00;34.80;;;8.70;99.90;;;;;;5076199;28;20043;-92
2021/11/02 23:01:44;;;;;;;76.57;39.00;;;8.80;99.90;;;;;;5076196;28;20049;-92
2021/11/02 23:04:11;;;;;;;82.68;40.90;;;8.80;99.90;;;;;;5076162;28;20025;-94
2021/11/02 23:06:38;;;;;;;71.68;40.67;;;8.80;99.90;;;;;;5076131;28;20097;-93
2021/11/02 23:09:05;;;;;;;78.25;44.13;;;8.80;99.90;;;;;;5075900;28;20116;-92
2021/11/02 23:11:31;;;;;;;86.35;48.60;;;8.80;99.90;;;;;;5075663;28;20028;-92
2021/11/02 23:13:58;;;;;;;79.78;44.85;;;8.70;99.90;;;;;;5075735;28;20025;-93
2021/11/02 23:16:24;;;;;;;90.75;49.45;;;8.80;99.90;;;;;;5075912;28;20032;-92
2021/11/02 23:18:50;;;;;;;89.57;48.40;;;8.80;99.90;;;;;;5075886;28;20502;-93
2021/11/02 23:21:16;;;;;;;79.22;47.97;;;8.80;99.90;;;;;;5075718;28;20024;-93
2021/11/02 23:23:41;;;;;;;79.00;46.95;;;8.90;99.90;;;;;;5075845;28;20075;-93